createdAt,value
2019-05-17T00:02:17.598Z,18.47
2019-05-17T00:04:46.991Z,18.67
2019-05-17T00:07:24.543Z,18.40
2019-05-17T00:09:53.218Z,16.63
2019-05-17T00:12:21.660Z,17.63
2019-05-17T00:14:50.034Z,18.50
2019-05-17T00:17:18.378Z,17.73
2019-05-17T00:19:46.931Z,19.70
2019-05-17T00:22:16.747Z,17.73
2019-05-17T00:24:47.543Z,16.40
2019-05-17T00:27:17.232Z,19.20
2019-05-17T00:29:46.491Z,17.70
2019-05-17T00:32:17.117Z,18.97
2019-05-17T00:34:46.997Z,16.67
2019-05-17T00:37:17.424Z,17.90
2019-05-17T00:39:47.150Z,20.17
2019-05-17T00:42:17.068Z,18.30
2019-05-17T00:44:47.386Z,17.07
2019-05-17T00:47:17.113Z,17.13
2019-05-17T00:49:46.504Z,20.17
2019-05-17T00:52:16.685Z,19.47
2019-05-17T00:54:46.958Z,17.10
2019-05-17T00:57:16.572Z,18.50
2019-05-17T00:59:47.363Z,17.20
2019-05-17T01:02:16.347Z,18.90
2019-05-17T01:04:47.425Z,18.37
2019-05-17T01:07:17.542Z,17.83
2019-05-17T01:09:47.242Z,15.17
2019-05-17T01:12:16.484Z,16.77
2019-05-17T01:14:46.661Z,16.73
2019-05-17T01:17:16.560Z,18.37
2019-05-17T01:19:47.248Z,18.00
2019-05-17T01:22:16.883Z,18.60
2019-05-17T01:24:46.299Z,20.07
2019-05-17T01:27:17.201Z,18.60
2019-05-17T01:29:46.572Z,17.50
2019-05-17T01:32:17.138Z,17.13
2019-05-17T01:34:46.883Z,19.53
2019-05-17T01:37:17.203Z,18.50
2019-05-17T01:39:46.846Z,17.60
2019-05-17T01:42:17.249Z,17.93
2019-05-17T01:44:47.240Z,17.97
2019-05-17T01:47:16.638Z,16.97
2019-05-17T01:49:46.987Z,17.43
2019-05-17T01:52:16.793Z,17.60
2019-05-17T01:54:46.947Z,18.77
2019-05-17T01:57:16.893Z,20.13
2019-05-17T01:59:46.710Z,19.07
2019-05-17T02:02:17.802Z,19.60
2019-05-17T02:04:46.731Z,20.97
2019-05-17T02:07:17.260Z,20.80
2019-05-17T02:09:47.531Z,18.87
2019-05-17T02:12:17.286Z,17.50
2019-05-17T02:14:46.752Z,17.87
2019-05-17T02:17:17.415Z,19.03
2019-05-17T02:19:46.607Z,17.70
2019-05-17T02:22:16.712Z,17.90
2019-05-17T02:24:46.420Z,17.27
2019-05-17T02:27:15.327Z,19.83
2019-05-17T02:29:43.657Z,20.57
2019-05-17T02:32:12.794Z,17.07
2019-05-17T02:34:42.969Z,19.10
2019-05-17T02:37:13.660Z,20.57
2019-05-17T02:39:53.820Z,17.33
2019-05-17T02:42:13.872Z,20.50
2019-05-17T02:44:43.738Z,17.80
2019-05-17T02:47:13.289Z,20.07
2019-05-17T02:49:42.469Z,19.90
2019-05-17T02:52:12.396Z,18.50
2019-05-17T02:54:43.710Z,18.30
2019-05-17T02:57:14.175Z,18.13
2019-05-17T02:59:43.263Z,17.30
2019-05-17T03:02:12.582Z,15.83
2019-05-17T03:04:43.303Z,15.70
2019-05-17T03:07:13.600Z,16.63
2019-05-17T03:09:43.121Z,17.23
2019-05-17T03:12:12.872Z,18.73
2019-05-17T03:14:43.252Z,18.27
2019-05-17T03:17:14.092Z,19.77
2019-05-17T03:19:43.542Z,18.63
2019-05-17T03:22:13.112Z,19.67
2019-05-17T03:24:43.955Z,20.97
2019-05-17T03:27:13.379Z,20.17
2019-05-17T03:29:42.584Z,19.43
2019-05-17T03:32:16.693Z,19.77
2019-05-17T03:34:45.006Z,20.33
2019-05-17T03:37:16.098Z,19.40
2019-05-17T03:39:42.732Z,18.57
2019-05-17T03:42:13.163Z,19.53
2019-05-17T03:44:43.812Z,18.20
2019-05-17T03:47:13.115Z,19.83
2019-05-17T03:49:43.643Z,17.67
2019-05-17T03:52:13.602Z,18.57
2019-05-17T03:54:43.066Z,18.50
2019-05-17T03:57:13.371Z,20.10
2019-05-17T03:59:43.128Z,18.23
2019-05-17T04:02:12.434Z,18.30
2019-05-17T04:04:42.895Z,18.67
2019-05-17T04:07:12.731Z,16.40
2019-05-17T04:09:43.692Z,17.20
2019-05-17T04:12:13.557Z,17.33
2019-05-17T04:14:42.830Z,20.60
2019-05-17T04:17:13.126Z,19.00
2019-05-17T04:19:42.659Z,19.07
2019-05-17T04:22:13.752Z,18.73
2019-05-17T04:24:43.872Z,18.70
2019-05-17T04:27:13.597Z,19.20
2019-05-17T04:29:42.541Z,19.60
2019-05-17T04:32:13.041Z,18.97
2019-05-17T04:34:43.768Z,18.20
2019-05-17T04:37:13.037Z,17.07
2019-05-17T04:39:43.187Z,16.70
2019-05-17T04:42:13.531Z,16.90
2019-05-17T04:44:43.193Z,16.40
2019-05-17T04:47:13.364Z,16.87
2019-05-17T04:49:44.068Z,16.90
2019-05-17T04:52:13.716Z,16.00
2019-05-17T04:54:42.640Z,17.37
2019-05-17T04:57:13.080Z,16.13
2019-05-17T04:59:43.402Z,16.67
2019-05-17T05:02:13.141Z,17.30
2019-05-17T05:04:43.641Z,17.20
2019-05-17T05:07:13.671Z,18.93
2019-05-17T05:09:43.081Z,19.77
2019-05-17T05:12:12.504Z,19.90
2019-05-17T05:14:43.112Z,20.47
2019-05-17T05:17:12.777Z,18.87
2019-05-17T05:19:42.301Z,21.60
2019-05-17T05:22:13.525Z,20.37
2019-05-17T05:24:42.357Z,19.17
2019-05-17T05:27:11.641Z,20.40
2019-05-17T05:29:41.632Z,21.57
2019-05-17T05:32:11.794Z,20.40
2019-05-17T05:34:42.750Z,19.10
2019-05-17T05:37:12.542Z,21.67
2019-05-17T05:39:41.412Z,20.90
2019-05-17T05:42:13.384Z,19.90
2019-05-17T05:44:41.587Z,20.07
2019-05-17T05:47:11.631Z,18.77
2019-05-17T05:49:42.593Z,19.87
2019-05-17T05:52:12.564Z,17.37
2019-05-17T05:54:41.306Z,18.00
2019-05-17T05:57:12.460Z,20.10
2019-05-17T05:59:42.351Z,19.17
2019-05-17T06:02:12.177Z,19.30
2019-05-17T06:04:42.311Z,18.07
2019-05-17T06:07:12.713Z,19.50
2019-05-17T06:09:42.359Z,19.43
2019-05-17T06:12:23.377Z,21.10
2019-05-17T06:14:41.713Z,18.97
2019-05-17T06:17:12.609Z,17.60
2019-05-17T06:19:42.192Z,20.37
2019-05-17T06:22:11.985Z,20.43
2019-05-17T06:24:42.478Z,20.37
2019-05-17T06:27:12.332Z,20.37
2019-05-17T06:29:41.589Z,18.00
2019-05-17T06:32:11.892Z,19.57
2019-05-17T06:34:42.300Z,20.67
2019-05-17T06:37:12.733Z,21.93
2019-05-17T06:39:41.927Z,20.43
2019-05-17T06:42:12.055Z,20.60
2019-05-17T06:44:41.753Z,23.10
2019-05-17T06:47:11.893Z,22.50
2019-05-17T06:49:42.423Z,22.70
2019-05-17T06:52:11.668Z,23.93
2019-05-17T06:54:41.795Z,24.03
2019-05-17T06:57:12.606Z,23.67
2019-05-17T06:59:40.799Z,24.20
2019-05-17T07:02:10.434Z,24.40
2019-05-17T07:04:39.552Z,23.10
2019-05-17T07:07:26.897Z,22.03
2019-05-17T07:09:56.175Z,23.83
2019-05-17T07:12:24.551Z,23.30
2019-05-17T07:14:52.984Z,21.03
2019-05-17T07:17:21.667Z,24.27
2019-05-17T07:19:50.726Z,26.40
2019-05-17T07:22:21.209Z,23.20
2019-05-17T07:24:50.250Z,24.30
2019-05-17T07:27:19.350Z,24.00
2019-05-17T07:29:49.699Z,22.20
2019-05-17T07:32:19.410Z,22.63
2019-05-17T07:34:50.166Z,25.53
2019-05-17T07:37:19.552Z,21.30
2019-05-17T07:39:58.619Z,23.70
2019-05-17T07:42:19.586Z,23.33
2019-05-17T07:44:49.701Z,23.50
2019-05-17T07:47:20.138Z,23.70
2019-05-17T07:49:49.474Z,24.00
2019-05-17T07:52:20.491Z,23.43
2019-05-17T07:54:50.829Z,24.17
2019-05-17T07:57:20.695Z,25.30
2019-05-17T07:59:50.769Z,25.70
2019-05-17T08:02:19.806Z,25.90
2019-05-17T08:04:50.072Z,27.50
2019-05-17T08:07:19.696Z,26.10
2019-05-17T08:09:50.475Z,26.03
2019-05-17T08:12:19.979Z,25.27
2019-05-17T08:14:50.218Z,28.87
2019-05-17T08:17:19.849Z,26.10
2019-05-17T08:19:49.805Z,26.50
2019-05-17T08:22:20.161Z,29.23
2019-05-17T08:24:49.365Z,26.90
2019-05-17T08:27:20.108Z,26.10
2019-05-17T08:29:49.879Z,25.70
2019-05-17T08:32:20.776Z,27.20
2019-05-17T08:34:51.690Z,26.13
2019-05-17T08:37:20.475Z,26.33
2019-05-17T08:39:50.526Z,25.30
2019-05-17T08:42:20.443Z,28.30
2019-05-17T08:44:49.811Z,26.40
2019-05-17T08:47:20.961Z,28.70
2019-05-17T08:49:49.687Z,26.70
2019-05-17T08:52:20.005Z,26.50
2019-05-17T08:54:49.573Z,25.70
2019-05-17T08:57:20.368Z,25.77
2019-05-17T08:59:49.741Z,26.37
2019-05-17T09:02:19.935Z,26.77
2019-05-17T09:04:49.791Z,26.07
2019-05-17T09:07:20.397Z,25.90
2019-05-17T09:09:50.146Z,26.00
2019-05-17T09:12:20.635Z,26.77
2019-05-17T09:14:49.591Z,27.03
2019-05-17T09:17:19.377Z,26.13
2019-05-17T09:19:50.528Z,26.07
2019-05-17T09:22:19.832Z,27.07
2019-05-17T09:24:49.946Z,26.80
2019-05-17T09:27:19.808Z,26.40
2019-05-17T09:29:49.719Z,24.87
2019-05-17T09:32:20.162Z,27.13
2019-05-17T09:34:49.792Z,26.47
2019-05-17T09:37:21.771Z,26.73
2019-05-17T09:39:49.307Z,26.70
2019-05-17T09:42:17.859Z,25.63
2019-05-17T09:44:46.203Z,26.00
2019-05-17T09:47:14.671Z,26.77
2019-05-17T09:49:43.103Z,25.97
2019-05-17T09:52:11.575Z,27.77
2019-05-17T09:54:45.094Z,28.57
2019-05-17T09:57:10.132Z,25.57
2019-05-17T09:59:40.419Z,27.30
2019-05-17T10:02:09.493Z,26.43
2019-05-17T10:04:39.488Z,27.30
2019-05-17T10:07:10.138Z,27.37
2019-05-17T10:09:39.988Z,30.90
2019-05-17T10:12:09.525Z,26.80
2019-05-17T10:14:38.121Z,28.13
2019-05-17T10:17:06.895Z,26.83
2019-05-17T10:19:35.587Z,26.00
2019-05-17T10:22:04.226Z,27.43
2019-05-17T10:24:37.950Z,28.77
2019-05-17T10:27:03.203Z,25.60
2019-05-17T10:29:31.982Z,27.03
2019-05-17T10:32:00.330Z,26.70
2019-05-17T10:34:29.449Z,28.73
2019-05-17T10:36:57.928Z,27.53
2019-05-17T10:39:26.270Z,25.63
2019-05-17T10:41:55.074Z,25.30
2019-05-17T10:44:23.458Z,24.53
2019-05-17T10:46:51.787Z,24.30
2019-05-17T10:49:20.352Z,27.47
2019-05-17T10:51:49.385Z,26.83
2019-05-17T10:54:20.691Z,25.77
2019-05-17T10:56:50.200Z,26.03
2019-05-17T10:59:20.263Z,25.60
2019-05-17T11:01:50.197Z,24.67
2019-05-17T11:04:19.790Z,25.20
2019-05-17T11:06:50.131Z,24.80
2019-05-17T11:09:20.537Z,25.60
2019-05-17T11:11:48.751Z,25.40
2019-05-17T11:14:17.418Z,22.90
2019-05-17T11:16:45.770Z,24.97
2019-05-17T11:19:14.534Z,23.50
2019-05-17T11:21:43.269Z,23.80
2019-05-17T11:24:11.763Z,25.10
2019-05-17T11:26:40.102Z,22.40
2019-05-17T11:29:08.475Z,24.70
2019-05-17T11:31:37.255Z,24.33
2019-05-17T11:34:05.672Z,23.73
2019-05-17T11:36:34.342Z,23.93
2019-05-17T11:39:02.800Z,23.60
2019-05-17T11:41:31.224Z,21.17
2019-05-17T11:43:59.756Z,22.97
2019-05-17T11:46:35.707Z,19.77
2019-05-17T11:48:58.594Z,21.20
2019-05-17T11:51:27.484Z,19.77
2019-05-17T11:53:56.268Z,21.37
2019-05-17T11:56:24.687Z,21.03
2019-05-17T11:58:53.334Z,20.50
2019-05-17T12:01:21.678Z,20.37
2019-05-17T12:03:50.079Z,20.60
2019-05-17T12:06:18.427Z,21.10
2019-05-17T12:08:47.051Z,22.43
2019-05-17T12:11:15.417Z,22.93
2019-05-17T12:13:43.945Z,21.67
2019-05-17T12:16:12.448Z,20.27
2019-05-17T12:18:40.883Z,19.90
2019-05-17T12:21:09.211Z,19.50
2019-05-17T12:23:37.575Z,18.77
2019-05-17T12:26:25.126Z,19.93
2019-05-17T12:28:54.185Z,20.00
2019-05-17T12:31:22.596Z,19.57
2019-05-17T12:33:51.643Z,20.33
2019-05-17T12:36:20.316Z,20.23
2019-05-17T12:38:48.797Z,21.90
2019-05-17T12:41:17.145Z,20.57
2019-05-17T12:43:45.642Z,20.50
2019-05-17T12:46:14.358Z,19.40
2019-05-17T12:48:42.735Z,19.63
2019-05-17T12:51:11.185Z,17.90
2019-05-17T12:53:39.943Z,20.17
2019-05-17T12:56:08.458Z,18.80
2019-05-17T12:58:37.508Z,16.40
2019-05-17T13:01:06.064Z,18.47
2019-05-17T13:03:34.757Z,18.90
2019-05-17T13:06:03.150Z,18.90
2019-05-17T13:08:31.479Z,16.80
2019-05-17T13:11:00.200Z,17.27
2019-05-17T13:13:29.200Z,17.53
2019-05-17T13:15:57.562Z,17.23
2019-05-17T13:18:25.920Z,16.40
2019-05-17T13:20:54.654Z,15.43
2019-05-17T13:23:23.334Z,16.53
2019-05-17T13:25:51.763Z,16.90
2019-05-17T13:28:20.506Z,16.43
2019-05-17T13:30:49.103Z,14.63
2019-05-17T13:33:17.523Z,14.63
2019-05-17T13:35:45.960Z,14.10
2019-05-17T13:38:14.604Z,13.60
2019-05-17T13:40:43.979Z,14.30
2019-05-17T13:43:12.369Z,12.50
2019-05-17T13:45:43.689Z,12.53
2019-05-17T13:48:11.243Z,11.87
2019-05-17T13:50:39.607Z,11.77
2019-05-17T13:53:07.962Z,12.07
2019-05-17T13:55:36.353Z,12.10
2019-05-17T13:58:04.776Z,11.37
2019-05-17T14:00:33.647Z,10.87
2019-05-17T14:03:02.028Z,10.57
2019-05-17T14:05:30.605Z,10.63
2019-05-17T14:07:59.327Z,11.00
2019-05-17T14:10:31.545Z,10.70
2019-05-17T14:12:58.001Z,10.70
2019-05-17T14:15:26.714Z,11.80
2019-05-17T14:17:55.510Z,10.70
2019-05-17T14:20:24.270Z,10.83
2019-05-17T14:22:52.667Z,11.10
2019-05-17T14:25:21.091Z,11.03
2019-05-17T14:27:49.830Z,10.60
2019-05-17T14:30:18.833Z,13.20
2019-05-17T14:32:48.155Z,11.93
2019-05-17T14:35:16.803Z,12.20
2019-05-17T14:37:45.708Z,11.50
2019-05-17T14:40:14.687Z,12.17
2019-05-17T14:42:43.591Z,11.37
2019-05-17T14:45:12.367Z,11.33
2019-05-17T14:47:41.070Z,10.83
2019-05-17T14:50:09.923Z,11.60
2019-05-17T14:52:38.278Z,11.00
2019-05-17T14:55:06.876Z,9.27
2019-05-17T14:57:35.288Z,9.70
2019-05-17T15:00:04.673Z,10.00
2019-05-17T15:02:34.195Z,11.10
2019-05-17T15:05:05.628Z,11.27
2019-05-17T15:07:34.880Z,11.37
2019-05-17T15:10:05.178Z,11.37
2019-05-17T15:12:33.651Z,11.23
2019-05-17T15:15:02.487Z,10.03
2019-05-17T15:17:35.029Z,10.87
2019-05-17T15:20:01.566Z,9.33
2019-05-17T15:22:29.932Z,8.73
2019-05-17T15:24:58.711Z,9.73
2019-05-17T15:27:27.539Z,8.90
2019-05-17T15:29:56.940Z,9.43
2019-05-17T15:32:25.369Z,8.73
2019-05-17T15:34:53.820Z,9.63
2019-05-17T15:37:22.371Z,9.47
2019-05-17T15:39:51.075Z,9.43
2019-05-17T15:42:19.901Z,10.33
2019-05-17T15:44:48.556Z,9.27
2019-05-17T15:47:17.003Z,9.70
2019-05-17T15:49:45.515Z,10.13
2019-05-17T15:52:13.937Z,9.20
2019-05-17T15:54:42.270Z,8.63
2019-05-17T15:57:10.630Z,9.30
2019-05-17T15:59:39.248Z,9.37
2019-05-17T16:02:07.775Z,9.00
2019-05-17T16:04:36.140Z,8.97
2019-05-17T16:07:04.589Z,8.80
2019-05-17T16:09:33.385Z,9.17
2019-05-17T16:12:02.074Z,9.47
2019-05-17T16:14:30.753Z,10.03
2019-05-17T16:16:59.198Z,12.00
2019-05-17T16:19:27.606Z,13.87
2019-05-17T16:21:56.061Z,12.80
2019-05-17T16:24:24.441Z,15.63
2019-05-17T16:26:52.797Z,16.30
2019-05-17T16:29:21.165Z,16.87
2019-05-17T16:31:49.948Z,15.27
2019-05-17T16:34:18.397Z,16.77
2019-05-17T16:36:47.321Z,16.33
2019-05-17T16:39:15.678Z,18.20
2019-05-17T16:41:44.295Z,17.20
2019-05-17T16:44:14.629Z,17.97
2019-05-17T16:46:42.836Z,19.13
2019-05-17T16:49:11.347Z,17.13
2019-05-17T16:51:39.719Z,20.60
2019-05-17T16:54:08.174Z,19.33
2019-05-17T16:56:36.592Z,17.93
2019-05-17T16:59:05.490Z,19.33
2019-05-17T17:01:34.278Z,19.90
2019-05-17T17:04:02.654Z,20.60
2019-05-17T17:06:31.034Z,22.87
2019-05-17T17:08:59.603Z,23.90
2019-05-17T17:11:28.058Z,21.83
2019-05-17T17:13:56.505Z,21.90
2019-05-17T17:16:25.311Z,20.80
2019-05-17T17:18:54.064Z,23.37
2019-05-17T17:21:22.497Z,20.87
2019-05-17T17:23:51.335Z,22.43
2019-05-17T17:26:19.695Z,21.30
2019-05-17T17:28:48.407Z,21.13
2019-05-17T17:31:17.132Z,21.67
2019-05-17T17:33:45.568Z,23.30
2019-05-17T17:36:13.940Z,22.73
2019-05-17T17:38:42.689Z,23.80
2019-05-17T17:41:11.099Z,20.27
2019-05-17T17:43:39.506Z,20.70
2019-05-17T17:46:08.296Z,21.20
2019-05-17T17:48:36.775Z,19.20
2019-05-17T17:51:05.313Z,22.27
2019-05-17T17:53:33.790Z,22.40
2019-05-17T17:56:02.426Z,21.90
2019-05-17T17:58:30.783Z,21.93
2019-05-17T18:00:59.277Z,24.10
2019-05-17T18:03:27.610Z,22.70
2019-05-17T18:05:56.032Z,21.40
2019-05-17T18:08:24.744Z,24.60
2019-05-17T18:10:53.089Z,23.10
2019-05-17T18:13:21.485Z,23.27
2019-05-17T18:15:50.546Z,21.40
2019-05-17T18:18:19.029Z,21.43
2019-05-17T18:20:47.475Z,22.00
2019-05-17T18:23:20.834Z,21.57
2019-05-17T18:25:47.186Z,22.60
2019-05-17T18:28:15.707Z,21.70
2019-05-17T18:30:44.190Z,25.80
2019-05-17T18:33:12.579Z,25.10
2019-05-17T18:35:41.084Z,24.00
2019-05-17T18:38:09.803Z,21.00
2019-05-17T18:40:38.242Z,23.30
2019-05-17T18:43:06.606Z,23.63
2019-05-17T18:45:35.091Z,24.37
2019-05-17T18:48:03.556Z,23.77
2019-05-17T18:50:32.326Z,23.17
2019-05-17T18:53:00.978Z,23.67
2019-05-17T18:55:29.545Z,24.13
2019-05-17T18:57:58.396Z,23.03
2019-05-17T19:00:26.838Z,25.93
2019-05-17T19:02:55.552Z,22.77
2019-05-17T19:05:24.707Z,24.73
2019-05-17T19:07:53.147Z,22.57
2019-05-17T19:10:22.121Z,23.23
2019-05-17T19:12:50.595Z,22.40
2019-05-17T19:15:19.166Z,22.30
2019-05-17T19:17:47.907Z,22.93
2019-05-17T19:20:16.584Z,22.90
2019-05-17T19:22:45.297Z,27.20
2019-05-17T19:25:14.251Z,25.50
2019-05-17T19:27:42.608Z,26.80
2019-05-17T19:30:11.250Z,26.53
2019-05-17T19:32:39.904Z,28.40
2019-05-17T19:35:08.418Z,28.93
2019-05-17T19:37:37.207Z,27.70
2019-05-17T19:40:06.053Z,27.03
2019-05-17T19:42:34.416Z,29.10
2019-05-17T19:45:02.930Z,27.07
2019-05-17T19:47:31.474Z,27.10
2019-05-17T19:50:00.080Z,26.50
2019-05-17T19:52:28.471Z,27.80
2019-05-17T19:54:57.128Z,23.50
2019-05-17T19:57:25.554Z,27.07
2019-05-17T19:59:54.107Z,23.17
2019-05-17T20:02:22.947Z,25.50
2019-05-17T20:04:51.387Z,24.53
2019-05-17T20:07:19.836Z,25.43
2019-05-17T20:09:49.349Z,25.37
2019-05-17T20:12:17.789Z,27.90
2019-05-17T20:14:46.143Z,25.00
2019-05-17T20:17:14.683Z,25.40
2019-05-17T20:19:43.417Z,23.80
2019-05-17T20:22:11.801Z,21.83
2019-05-17T20:24:40.177Z,24.63
2019-05-17T20:27:08.663Z,25.97
2019-05-17T20:29:37.557Z,28.20
2019-05-17T20:32:06.344Z,25.13
2019-05-17T20:34:35.417Z,23.73
2019-05-17T20:37:04.338Z,25.23
2019-05-17T20:39:32.835Z,24.80
2019-05-17T20:42:01.522Z,22.87
2019-05-17T20:44:29.962Z,23.47
2019-05-17T20:46:58.672Z,20.63
2019-05-17T20:49:27.475Z,23.20
2019-05-17T20:51:56.158Z,24.50
2019-05-17T20:54:25.016Z,24.50
2019-05-17T20:56:55.325Z,24.97
2019-05-17T20:59:23.727Z,28.33
2019-05-17T21:01:52.246Z,28.53
2019-05-17T21:04:20.912Z,27.70
2019-05-17T21:06:49.269Z,25.60
2019-05-17T21:09:17.617Z,24.60
2019-05-17T21:11:46.365Z,22.27
2019-05-17T21:14:14.929Z,22.87
2019-05-17T21:16:43.647Z,24.83
2019-05-17T21:19:12.005Z,23.10
2019-05-17T21:21:40.997Z,21.43
2019-05-17T21:24:09.403Z,20.60
2019-05-17T21:26:38.480Z,21.37
2019-05-17T21:29:07.103Z,18.93
2019-05-17T21:31:35.531Z,19.80
2019-05-17T21:34:04.260Z,20.33
2019-05-17T21:36:32.595Z,18.80
2019-05-17T21:39:01.010Z,22.83
2019-05-17T21:41:29.358Z,22.43
2019-05-17T21:43:57.803Z,20.37
2019-05-17T21:46:26.181Z,19.30
2019-05-17T21:48:54.559Z,18.27
2019-05-17T21:51:22.927Z,20.20
2019-05-17T21:53:51.375Z,19.50
2019-05-17T21:56:19.740Z,20.37
2019-05-17T21:58:48.547Z,21.27
2019-05-17T22:01:20.051Z,19.23
2019-05-17T22:03:48.788Z,18.23
2019-05-17T22:06:17.123Z,18.40
2019-05-17T22:08:45.552Z,19.27
2019-05-17T22:11:13.967Z,16.97
2019-05-17T22:13:42.400Z,18.33
2019-05-17T22:16:19.040Z,18.57
2019-05-17T22:18:41.342Z,20.40
2019-05-17T22:21:09.671Z,19.53
2019-05-17T22:23:38.118Z,20.20
2019-05-17T22:26:06.546Z,18.20
2019-05-17T22:28:35.259Z,17.60
2019-05-17T22:31:03.702Z,18.70
2019-05-17T22:33:32.084Z,18.80
2019-05-17T22:36:00.830Z,20.93
2019-05-17T22:38:29.183Z,17.73
2019-05-17T22:40:57.871Z,20.60
2019-05-17T22:43:26.385Z,20.53
2019-05-17T22:45:54.783Z,20.60
2019-05-17T22:48:23.520Z,19.87
2019-05-17T22:50:51.855Z,18.07
2019-05-17T22:53:20.694Z,17.97
2019-05-17T22:55:49.483Z,17.97
2019-05-17T22:58:17.851Z,17.50
2019-05-17T23:00:46.548Z,18.83
2019-05-17T23:03:15.539Z,18.87
2019-05-17T23:05:43.987Z,17.23
2019-05-17T23:08:12.352Z,16.13
2019-05-17T23:10:40.990Z,17.20
2019-05-17T23:13:09.359Z,16.57
2019-05-17T23:15:56.178Z,16.60
2019-05-17T23:18:24.869Z,16.03
2019-05-17T23:20:53.207Z,16.60
2019-05-17T23:23:22.079Z,16.30
2019-05-17T23:25:50.726Z,17.73
2019-05-17T23:28:19.093Z,17.20
2019-05-17T23:30:47.519Z,14.40
2019-05-17T23:33:16.010Z,15.60
2019-05-17T23:35:44.674Z,16.77
2019-05-17T23:38:13.087Z,17.80
2019-05-17T23:40:41.445Z,17.47
2019-05-17T23:43:09.783Z,18.90
2019-05-17T23:45:38.164Z,16.37
2019-05-17T23:48:06.860Z,16.80
2019-05-17T23:50:35.550Z,16.60
2019-05-17T23:53:03.977Z,19.20
2019-05-17T23:55:32.346Z,17.53
2019-05-17T23:58:00.688Z,15.97
